sensor_id;sensor_type;location;lat;lon;timestamp;pressure;altitude;pressure_sealevel;temperature;humidity
50087;BME280;35967;50.718;7.050;2023-07-30T00:08:35;100214.75;;;17.74;100.00
50087;BME280;35967;50.718;7.050;2023-07-30T00:18:40;100222.69;;;17.73;100.00
50087;BME280;35967;50.718;7.050;2023-07-30T00:28:43;100234.38;;;17.65;100.00
50087;BME280;35967;50.718;7.050;2023-07-30T00:38:47;100215.50;;;17.31;100.00
50087;BME280;35967;50.718;7.050;2023-07-30T00:48:51;100223.44;;;17.44;100.00
50087;BME280;35967;50.718;7.050;2023-07-30T00:58:56;100224.06;;;17.33;100.00
50087;BME280;35967;50.718;7.050;2023-07-30T01:09:00;100234.00;;;17.27;100.00
50087;BME280;35967;50.718;7.050;2023-07-30T01:19:05;100252.28;;;17.25;100.00
50087;BME280;35967;50.718;7.050;2023-07-30T01:29:14;100263.22;;;17.00;100.00
50087;BME280;35967;50.718;7.050;2023-07-30T01:39:17;100276.22;;;17.00;100.00
50087;BME280;35967;50.718;7.050;2023-07-30T01:49:22;100282.09;;;17.19;100.00
50087;BME280;35967;50.718;7.050;2023-07-30T01:59:25;100271.69;;;17.19;100.00
50087;BME280;35967;50.718;7.050;2023-07-30T02:09:30;100268.16;;;17.21;100.00
50087;BME280;35967;50.718;7.050;2023-07-30T02:19:35;100271.09;;;17.14;100.00
50087;BME280;35967;50.718;7.050;2023-07-30T02:29:39;100261.41;;;17.32;100.00
50087;BME280;35967;50.718;7.050;2023-07-30T02:39:43;100269.03;;;17.35;100.00
50087;BME280;35967;50.718;7.050;2023-07-30T02:49:47;100269.34;;;17.15;100.00
50087;BME280;35967;50.718;7.050;2023-07-30T02:59:50;100273.66;;;17.30;100.00
50087;BME280;35967;50.718;7.050;2023-07-30T03:09:55;100280.19;;;17.38;100.00
50087;BME280;35967;50.718;7.050;2023-07-30T03:19:58;100289.44;;;17.43;100.00
50087;BME280;35967;50.718;7.050;2023-07-30T03:30:04;100299.25;;;17.38;100.00
50087;BME280;35967;50.718;7.050;2023-07-30T03:40:08;100299.53;;;17.33;100.00
50087;BME280;35967;50.718;7.050;2023-07-30T03:50:13;100298.44;;;17.22;100.00
50087;BME280;35967;50.718;7.050;2023-07-30T04:00:16;100297.28;;;17.11;100.00
50087;BME280;35967;50.718;7.050;2023-07-30T04:10:20;100309.41;;;17.11;100.00
50087;BME280;35967;50.718;7.050;2023-07-30T04:20:24;100312.88;;;16.95;100.00
50087;BME280;35967;50.718;7.050;2023-07-30T04:30:30;100327.41;;;16.66;100.00
50087;BME280;35967;50.718;7.050;2023-07-30T04:40:33;100344.50;;;16.54;97.55
50087;BME280;35967;50.718;7.050;2023-07-30T04:50:38;100338.78;;;16.63;95.64
50087;BME280;35967;50.718;7.050;2023-07-30T05:00:43;100330.88;;;16.82;97.25
50087;BME280;35967;50.718;7.050;2023-07-30T05:10:48;100336.22;;;16.79;95.39
50087;BME280;35967;50.718;7.050;2023-07-30T05:20:51;100338.16;;;16.92;96.42
50087;BME280;35967;50.718;7.050;2023-07-30T05:30:55;100322.34;;;16.96;94.30
50087;BME280;35967;50.718;7.050;2023-07-30T05:40:58;100333.75;;;16.94;95.33
50087;BME280;35967;50.718;7.050;2023-07-30T05:51:03;100322.78;;;17.05;96.22
50087;BME280;35967;50.718;7.050;2023-07-30T06:01:06;100334.09;;;17.03;94.74
50087;BME280;35967;50.718;7.050;2023-07-30T06:11:10;100345.59;;;17.31;96.14
50087;BME280;35967;50.718;7.050;2023-07-30T06:21:13;100352.63;;;17.29;97.41
50087;BME280;35967;50.718;7.050;2023-07-30T06:31:18;100364.53;;;17.65;99.96
50087;BME280;35967;50.718;7.050;2023-07-30T06:41:21;100373.19;;;17.50;95.99
50087;BME280;35967;50.718;7.050;2023-07-30T06:51:26;100398.78;;;17.10;100.00
50087;BME280;35967;50.718;7.050;2023-07-30T07:01:31;100429.03;;;16.95;100.00
50087;BME280;35967;50.718;7.050;2023-07-30T07:11:35;100417.06;;;16.57;100.00
50087;BME280;35967;50.718;7.050;2023-07-30T07:21:40;100425.72;;;16.58;100.00
50087;BME280;35967;50.718;7.050;2023-07-30T07:31:46;100412.88;;;16.88;100.00
50087;BME280;35967;50.718;7.050;2023-07-30T07:41:49;100406.94;;;16.86;100.00
50087;BME280;35967;50.718;7.050;2023-07-30T07:51:53;100413.97;;;17.01;100.00
50087;BME280;35967;50.718;7.050;2023-07-30T08:01:56;100419.09;;;17.35;100.00
50087;BME280;35967;50.718;7.050;2023-07-30T08:12:01;100416.50;;;17.51;100.00
50087;BME280;35967;50.718;7.050;2023-07-30T08:22:04;100424.66;;;17.91;100.00
50087;BME280;35967;50.718;7.050;2023-07-30T08:32:09;100431.22;;;18.15;97.36
50087;BME280;35967;50.718;7.050;2023-07-30T08:42:12;100436.63;;;17.95;95.91
50087;BME280;35967;50.718;7.050;2023-07-30T08:52:16;100436.09;;;17.89;95.68
50087;BME280;35967;50.718;7.050;2023-07-30T09:02:29;100440.88;;;18.43;92.64
50087;BME280;35967;50.718;7.050;2023-07-30T09:12:35;100451.03;;;18.62;84.99
50087;BME280;35967;50.718;7.050;2023-07-30T09:22:38;100463.13;;;19.08;80.68
50087;BME280;35967;50.718;7.050;2023-07-30T09:32:43;100466.94;;;19.17;78.84
50087;BME280;35967;50.718;7.050;2023-07-30T09:42:48;100472.41;;;19.41;75.82
50087;BME280;35967;50.718;7.050;2023-07-30T09:52:54;100463.47;;;19.73;75.57
50087;BME280;35967;50.718;7.050;2023-07-30T10:02:58;100479.03;;;20.82;68.89
50087;BME280;35967;50.718;7.050;2023-07-30T10:13:06;100473.53;;;20.72;61.76
50087;BME280;35967;50.718;7.050;2023-07-30T10:23:10;100474.19;;;21.15;61.02
50087;BME280;35967;50.718;7.050;2023-07-30T10:33:15;100479.63;;;20.60;59.65
50087;BME280;35967;50.718;7.050;2023-07-30T10:43:18;100487.22;;;19.97;60.50
50087;BME280;35967;50.718;7.050;2023-07-30T10:53:24;100476.19;;;20.85;59.51
50087;BME280;35967;50.718;7.050;2023-07-30T11:03:28;100459.09;;;22.28;54.34
50087;BME280;35967;50.718;7.050;2023-07-30T11:13:36;100459.72;;;21.96;53.71
50087;BME280;35967;50.718;7.050;2023-07-30T11:23:41;100468.13;;;22.60;51.10
50087;BME280;35967;50.718;7.050;2023-07-30T11:33:47;100468.47;;;22.44;52.81
50087;BME280;35967;50.718;7.050;2023-07-30T11:43:50;100473.34;;;22.13;52.06
50087;BME280;35967;50.718;7.050;2023-07-30T11:53:56;100474.59;;;22.31;51.44
50087;BME280;35967;50.718;7.050;2023-07-30T12:04:02;100487.97;;;21.42;49.30
50087;BME280;35967;50.718;7.050;2023-07-30T12:14:08;100477.19;;;21.96;50.26
50087;BME280;35967;50.718;7.050;2023-07-30T12:24:11;100485.19;;;22.18;50.44
50087;BME280;35967;50.718;7.050;2023-07-30T12:34:15;100506.22;;;21.31;53.94
50087;BME280;35967;50.718;7.050;2023-07-30T12:44:19;100492.72;;;22.59;50.79
50087;BME280;35967;50.718;7.050;2023-07-30T12:54:23;100485.81;;;23.92;44.79
50087;BME280;35967;50.718;7.050;2023-07-30T13:04:27;100491.44;;;22.87;49.38
50087;BME280;35967;50.718;7.050;2023-07-30T13:14:32;100500.97;;;22.05;51.42
50087;BME280;35967;50.718;7.050;2023-07-30T13:24:35;100508.69;;;22.56;48.99
50087;BME280;35967;50.718;7.050;2023-07-30T13:34:40;100503.47;;;22.07;50.80
50087;BME280;35967;50.718;7.050;2023-07-30T13:44:43;100502.75;;;22.29;50.19
50087;BME280;35967;50.718;7.050;2023-07-30T13:54:47;100503.88;;;22.14;50.61
50087;BME280;35967;50.718;7.050;2023-07-30T14:04:51;100504.72;;;22.50;49.17
50087;BME280;35967;50.718;7.050;2023-07-30T14:14:55;100503.09;;;22.60;49.06
50087;BME280;35967;50.718;7.050;2023-07-30T14:24:58;100505.03;;;22.81;48.50
50087;BME280;35967;50.718;7.050;2023-07-30T14:35:03;100504.41;;;22.77;48.87
50087;BME280;35967;50.718;7.050;2023-07-30T14:45:08;100493.34;;;22.85;47.25
50087;BME280;35967;50.718;7.050;2023-07-30T14:55:12;100496.47;;;23.02;46.06
50087;BME280;35967;50.718;7.050;2023-07-30T15:05:16;100513.28;;;22.99;46.00
50087;BME280;35967;50.718;7.050;2023-07-30T15:15:20;100527.22;;;22.77;46.96
50087;BME280;35967;50.718;7.050;2023-07-30T15:25:24;100508.28;;;22.49;48.35
50087;BME280;35967;50.718;7.050;2023-07-30T15:35:28;100504.59;;;21.92;52.71
50087;BME280;35967;50.718;7.050;2023-07-30T15:45:33;100501.13;;;22.15;49.50
50087;BME280;35967;50.718;7.050;2023-07-30T15:55:39;100496.25;;;21.86;49.11
50087;BME280;35967;50.718;7.050;2023-07-30T16:05:46;100489.03;;;21.77;49.14
50087;BME280;35967;50.718;7.050;2023-07-30T16:15:51;100486.59;;;21.87;49.52
50087;BME280;35967;50.718;7.050;2023-07-30T16:25:54;100482.50;;;22.07;48.04
50087;BME280;35967;50.718;7.050;2023-07-30T16:35:59;100487.28;;;22.37;51.47
50087;BME280;35967;50.718;7.050;2023-07-30T16:46:03;100486.00;;;22.19;48.03
50087;BME280;35967;50.718;7.050;2023-07-30T16:56:11;100468.13;;;22.13;47.41
50087;BME280;35967;50.718;7.050;2023-07-30T17:06:14;100469.06;;;22.12;47.56
50087;BME280;35967;50.718;7.050;2023-07-30T17:16:19;100481.91;;;22.03;47.88
50087;BME280;35967;50.718;7.050;2023-07-30T17:26:25;100494.22;;;21.90;49.48
50087;BME280;35967;50.718;7.050;2023-07-30T17:36:29;100499.31;;;21.67;47.73
50087;BME280;35967;50.718;7.050;2023-07-30T17:46:34;100513.94;;;21.58;48.45
50087;BME280;35967;50.718;7.050;2023-07-30T17:56:39;100536.75;;;21.43;49.70
50087;BME280;35967;50.718;7.050;2023-07-30T18:06:43;100547.91;;;21.21;50.87
50087;BME280;35967;50.718;7.050;2023-07-30T18:16:47;100576.50;;;20.71;55.58
50087;BME280;35967;50.718;7.050;2023-07-30T18:26:50;100588.78;;;20.43;58.67
50087;BME280;35967;50.718;7.050;2023-07-30T18:36:54;100609.69;;;20.16;62.71
50087;BME280;35967;50.718;7.050;2023-07-30T18:46:57;100597.69;;;19.84;66.56
50087;BME280;35967;50.718;7.050;2023-07-30T18:57:04;100601.81;;;19.74;67.09
50087;BME280;35967;50.718;7.050;2023-07-30T19:07:08;100599.75;;;19.65;67.69
50087;BME280;35967;50.718;7.050;2023-07-30T19:17:12;100615.22;;;19.53;68.92
50087;BME280;35967;50.718;7.050;2023-07-30T19:27:16;100643.09;;;18.94;79.83
50087;BME280;35967;50.718;7.050;2023-07-30T19:37:21;100642.19;;;17.65;98.15
50087;BME280;35967;50.718;7.050;2023-07-30T19:47:24;100622.81;;;17.71;100.00
50087;BME280;35967;50.718;7.050;2023-07-30T19:57:30;100610.69;;;18.03;99.27
50087;BME280;35967;50.718;7.050;2023-07-30T20:07:34;100584.09;;;17.80;98.46
50087;BME280;35967;50.718;7.050;2023-07-30T20:17:39;100584.03;;;17.82;98.36
50087;BME280;35967;50.718;7.050;2023-07-30T20:27:42;100572.44;;;17.88;96.74
50087;BME280;35967;50.718;7.050;2023-07-30T20:37:47;100565.72;;;17.84;94.39
50087;BME280;35967;50.718;7.050;2023-07-30T20:47:51;100558.69;;;17.86;92.65
50087;BME280;35967;50.718;7.050;2023-07-30T20:57:57;100554.97;;;17.90;89.76
50087;BME280;35967;50.718;7.050;2023-07-30T21:08:01;100542.53;;;17.95;88.85
50087;BME280;35967;50.718;7.050;2023-07-30T21:18:05;100545.41;;;17.90;88.47
50087;BME280;35967;50.718;7.050;2023-07-30T21:28:08;100544.66;;;17.88;85.61
50087;BME280;35967;50.718;7.050;2023-07-30T21:38:13;100526.22;;;17.91;83.84
50087;BME280;35967;50.718;7.050;2023-07-30T21:48:16;100512.00;;;17.99;83.75
50087;BME280;35967;50.718;7.050;2023-07-30T21:58:20;100500.22;;;18.07;82.69
50087;BME280;35967;50.718;7.050;2023-07-30T22:08:23;100502.25;;;18.02;82.67
50087;BME280;35967;50.718;7.050;2023-07-30T22:18:28;100506.75;;;18.15;82.34
50087;BME280;35967;50.718;7.050;2023-07-30T22:28:31;100498.28;;;18.11;81.77
50087;BME280;35967;50.718;7.050;2023-07-30T22:38:35;100500.53;;;18.17;82.33
50087;BME280;35967;50.718;7.050;2023-07-30T22:48:38;100477.84;;;18.19;83.23
50087;BME280;35967;50.718;7.050;2023-07-30T22:58:45;100476.63;;;18.10;84.46
50087;BME280;35967;50.718;7.050;2023-07-30T23:08:48;100481.72;;;18.12;85.01
50087;BME280;35967;50.718;7.050;2023-07-30T23:18:53;100476.50;;;18.12;85.21
50087;BME280;35967;50.718;7.050;2023-07-30T23:28:56;100475.34;;;18.18;85.99
50087;BME280;35967;50.718;7.050;2023-07-30T23:39:01;100462.13;;;18.21;86.01
50087;BME280;35967;50.718;7.050;2023-07-30T23:49:04;100457.16;;;18.16;87.25
50087;BME280;35967;50.718;7.050;2023-07-30T23:59:09;100449.19;;;18.19;86.58
